MMTP/TAP METAR and TAF weather

Enter ICAO airport designator
Station Type Date Time Source
MMTP METAR 2019/10/15 18:13 UTC NOAA

MMTP 151813Z 13006KT 1 1/2SM RA OVC006 24/24 A2981 RMK 8/7// RAB10


Station Type Date Time Source
MMTP Decoded METAR 2019/10/15 18:13 UTC NOAA

Tapachula , Mexico (MMTP) 14-47N 092-23W
Oct 15, 2019 - 02:13 PM EDT / 2019.10.15 1813 UTC
Wind: from the SE (130 degrees) at 7 MPH (6 KT):0
Visibility: 1 1/2 mile(s):0
Sky conditions: overcast
Weather: rain
Temperature: 75 F (24 C)
Dew Point: 75 F (24 C)
Relative Humidity: 100%
Pressure (altimeter): 29.81 in. Hg (1009 hPa)
ob: MMTP 151813Z 13006KT 1 1/2SM RA OVC006 24/24 A2981 RMK 8/7// RAB10
cycle: 18

Station Type Date Time Source
MMTP TAF 2019/10/15 18:28 UTC NOAA

TAF MMTP 151720Z 1518/1624 16010KT 6SM RA BKN020 OVC070
TEMPO 1520/1524 3SM RA BKN015CB
FM160000 20010KT 3SM RA BKN015CB OVC070 PROB40 1600/1604 1SM +RA OVC010CB
FM160600 09010KT 4SM RA BKN015 OVC080
FM161800 20010KT 5SM RA BKN015 OVC080

Example: see airport list